logo
Search for airport 
image banner adimage banner adimage banner ad
image banner ad

YQNS - Queenstown

Located in Queenstown, Australia

ICAO - YQNS, IATA - UEE

Data provided by Airmate  

General information

Coordinates: S42°4'33" E145°31'52"
Elevation is 867 feet MSL.
Magnetic variation is 14° East
View others Airports in Tasmania

Operational data

Special qualification required
Current time UTC:
Current local time:
Weather at : - ( 0 km )
METAR: PKWA 152140Z AUTO 07014G22KT 7SM SCT020 SCT025 SCT034 29/26 A2984 RMK AO2 T02870259
View NOTAMs / SUP AIP / TFR affecting this airport [VIEW]
Communications frequencies: [VIEW]

Runways:

RWY identifierQFULength (ft)Width (ft)SurfaceLDA (ft)
09410198X
27410198X

Airport contact information

Address: Queenstown Australia

Satellite view of YQNS